createdAt,value
2023-02-14T00:02:06.553Z,12.23
2023-02-14T00:04:34.787Z,9.52
2023-02-14T00:07:02.338Z,8.80
2023-02-14T00:09:29.957Z,9.45
2023-02-14T00:11:57.464Z,13.93
2023-02-14T00:14:44.074Z,9.27
2023-02-14T00:17:11.609Z,9.05
2023-02-14T00:19:39.219Z,9.13
2023-02-14T00:22:06.822Z,9.48
2023-02-14T00:24:34.413Z,10.00
2023-02-14T00:27:02.026Z,10.80
2023-02-14T00:29:33.026Z,10.00
2023-02-14T00:32:00.734Z,13.75
2023-02-14T00:34:28.999Z,10.93
2023-02-14T00:36:56.532Z,12.38
2023-02-14T00:39:24.030Z,9.95
2023-02-14T00:41:51.700Z,9.85
2023-02-14T00:44:20.406Z,11.13
2023-02-14T00:46:49.267Z,9.45
2023-02-14T00:49:16.785Z,12.18
2023-02-14T00:51:44.304Z,9.27
2023-02-14T00:54:11.801Z,15.43
2023-02-14T00:56:39.325Z,8.82
2023-02-14T00:59:06.870Z,10.57
2023-02-14T01:01:34.416Z,9.38
2023-02-14T01:04:03.302Z,12.75
2023-02-14T01:06:30.881Z,7.63
2023-02-14T01:08:58.697Z,8.93
2023-02-14T01:11:27.758Z,8.15
2023-02-14T01:13:58.259Z,8.40
2023-02-14T01:16:27.597Z,8.85
2023-02-14T01:18:55.456Z,10.98
2023-02-14T01:21:26.012Z,8.25
2023-02-14T01:23:56.622Z,9.00
2023-02-14T01:26:26.054Z,6.97
2023-02-14T01:28:53.801Z,7.53
2023-02-14T01:31:23.762Z,9.85
2023-02-14T01:33:52.155Z,7.45
2023-02-14T01:36:22.067Z,7.68
2023-02-14T01:38:53.318Z,6.75
2023-02-14T01:41:21.606Z,9.27
2023-02-14T01:43:55.709Z,7.82
2023-02-14T01:46:23.644Z,9.02
2023-02-14T01:48:51.982Z,8.90
2023-02-14T01:51:21.023Z,8.60
2023-02-14T01:53:49.736Z,8.80
2023-02-14T01:56:22.462Z,8.13
2023-02-14T01:58:56.117Z,5.90
2023-02-14T02:01:24.567Z,8.57
2023-02-14T02:03:55.347Z,8.10
2023-02-14T02:06:27.061Z,8.48
2023-02-14T02:09:04.345Z,8.73
2023-02-14T02:11:33.288Z,8.63
2023-02-14T02:14:00.827Z,8.75
2023-02-14T02:16:48.960Z,7.55
2023-02-14T02:19:49.767Z,8.90
2023-02-14T02:22:47.463Z,9.10
2023-02-14T02:25:30.383Z,10.60
2023-02-14T02:28:19.796Z,8.95
2023-02-14T02:31:14.872Z,9.32
2023-02-14T02:34:14.896Z,9.38
2023-02-14T02:37:11.652Z,12.75
2023-02-14T02:39:54.383Z,10.45
2023-02-14T02:42:35.013Z,7.63
2023-02-14T02:45:12.060Z,12.50
2023-02-14T02:47:45.383Z,9.73
2023-02-14T02:50:41.164Z,12.05
2023-02-14T02:53:18.482Z,9.30
2023-02-14T02:56:10.369Z,10.15
2023-02-14T02:58:41.019Z,11.15
2023-02-14T03:01:12.531Z,11.15
2023-02-14T03:03:59.742Z,9.93
2023-02-14T03:06:27.223Z,11.40
2023-02-14T03:08:56.000Z,10.95
2023-02-14T03:11:25.939Z,9.02
2023-02-14T03:14:21.352Z,11.45
2023-02-14T03:17:00.084Z,13.20
2023-02-14T03:19:55.547Z,13.23
2023-02-14T03:22:32.966Z,11.45
2023-02-14T03:25:09.197Z,12.52
2023-02-14T03:27:42.501Z,13.95
2023-02-14T03:30:18.802Z,13.90
2023-02-14T03:32:51.411Z,13.07
2023-02-14T03:35:24.882Z,11.85
2023-02-14T03:37:57.939Z,16.63
2023-02-14T03:40:32.063Z,12.93
2023-02-14T03:43:05.128Z,11.25
2023-02-14T03:45:36.398Z,14.30
2023-02-14T03:48:08.878Z,13.05
2023-02-14T03:50:38.952Z,13.40
2023-02-14T03:53:09.901Z,13.05
2023-02-14T03:55:42.737Z,15.07
2023-02-14T03:58:17.059Z,15.50
2023-02-14T04:00:48.519Z,17.42
2023-02-14T04:03:18.685Z,16.30
2023-02-14T04:05:52.161Z,18.92
2023-02-14T04:08:23.753Z,15.07
2023-02-14T04:10:53.352Z,17.35
2023-02-14T04:13:21.008Z,13.20
2023-02-14T04:15:48.773Z,15.57
2023-02-14T04:18:45.539Z,16.08
2023-02-14T04:21:13.042Z,15.20
2023-02-14T04:23:40.550Z,14.98
2023-02-14T04:26:09.353Z,17.42
2023-02-14T04:28:36.953Z,19.90
2023-02-14T04:31:06.606Z,16.30
2023-02-14T04:33:35.086Z,17.30
2023-02-14T04:36:02.751Z,20.25
2023-02-14T04:38:30.196Z,17.75
2023-02-14T04:40:57.899Z,18.35
2023-02-14T04:43:26.992Z,17.25
2023-02-14T04:45:54.431Z,17.60
2023-02-14T04:48:21.940Z,18.02
2023-02-14T04:50:52.763Z,20.40
2023-02-14T04:53:20.635Z,24.05
2023-02-14T04:55:50.270Z,21.38
2023-02-14T04:58:18.041Z,19.25
2023-02-14T05:00:46.910Z,20.88
2023-02-14T05:03:14.444Z,19.90
2023-02-14T05:05:41.932Z,18.60
2023-02-14T05:08:09.526Z,21.33
2023-02-14T05:10:37.007Z,19.33
2023-02-14T05:13:04.577Z,21.52
2023-02-14T05:15:33.693Z,19.80
2023-02-14T05:18:02.869Z,20.80
2023-02-14T05:20:30.511Z,21.13
2023-02-14T05:22:59.888Z,24.90
2023-02-14T05:25:27.355Z,24.13
2023-02-14T05:27:54.873Z,20.05
2023-02-14T05:30:26.528Z,24.38
2023-02-14T05:32:54.906Z,24.35
2023-02-14T05:35:24.071Z,23.83
2023-02-14T05:37:51.591Z,25.83
2023-02-14T05:40:19.533Z,24.25
2023-02-14T05:42:47.043Z,27.90
2023-02-14T05:45:14.649Z,26.58
2023-02-14T05:47:42.318Z,28.38
2023-02-14T05:50:10.680Z,28.08
2023-02-14T05:52:39.562Z,27.67
2023-02-14T05:55:08.381Z,28.80
2023-02-14T05:57:36.068Z,32.75
2023-02-14T06:00:05.445Z,32.50
2023-02-14T06:02:33.120Z,23.90
2023-02-14T06:05:00.660Z,28.40
2023-02-14T06:07:28.120Z,29.55
2023-02-14T06:09:57.119Z,30.38
2023-02-14T06:12:24.661Z,32.28
2023-02-14T06:14:52.254Z,29.60
2023-02-14T06:17:19.736Z,31.55
2023-02-14T06:19:48.525Z,27.38
2023-02-14T06:22:16.110Z,31.63
2023-02-14T06:24:43.578Z,24.60
2023-02-14T06:27:12.367Z,32.88
2023-02-14T06:29:39.818Z,41.83
2023-02-14T06:32:07.502Z,31.02
2023-02-14T06:34:35.434Z,31.48
2023-02-14T06:37:02.977Z,26.88
2023-02-14T06:39:30.678Z,30.67
2023-02-14T06:41:58.206Z,30.52
2023-02-14T06:44:27.059Z,26.02
2023-02-14T06:46:54.536Z,29.33
2023-02-14T06:49:22.212Z,29.42
2023-02-14T06:51:49.660Z,28.48
2023-02-14T06:54:17.270Z,29.80
2023-02-14T06:56:44.912Z,27.77
2023-02-14T06:59:12.408Z,29.70
2023-02-14T07:01:41.274Z,35.10
2023-02-14T07:04:08.856Z,29.08
2023-02-14T07:06:36.872Z,29.45
2023-02-14T07:09:04.583Z,22.50
2023-02-14T07:11:32.031Z,25.42
2023-02-14T07:13:59.556Z,26.85
2023-02-14T07:16:27.060Z,25.88
2023-02-14T07:18:55.966Z,26.63
2023-02-14T07:21:23.431Z,26.85
2023-02-14T07:23:50.885Z,22.33
2023-02-14T07:26:18.895Z,25.25
2023-02-14T07:28:46.549Z,23.05
2023-02-14T07:31:14.245Z,22.70
2023-02-14T07:33:41.890Z,23.17
2023-02-14T07:36:11.741Z,18.88
2023-02-14T07:38:39.388Z,20.58
2023-02-14T07:41:07.140Z,18.70
2023-02-14T07:43:40.510Z,17.85
2023-02-14T07:46:08.440Z,21.05
2023-02-14T07:48:36.005Z,20.30
2023-02-14T07:51:03.785Z,19.45
2023-02-14T07:53:32.748Z,17.00
2023-02-14T07:56:00.314Z,15.90
2023-02-14T07:58:27.882Z,15.38
2023-02-14T08:00:55.950Z,17.55
2023-02-14T08:03:23.450Z,16.83
2023-02-14T08:05:56.922Z,17.05
2023-02-14T08:08:26.213Z,19.45
2023-02-14T08:10:55.075Z,18.92
2023-02-14T08:13:22.735Z,17.83
2023-02-14T08:16:06.036Z,18.83
2023-02-14T08:18:35.838Z,15.52
2023-02-14T08:21:04.140Z,14.57
2023-02-14T08:23:31.709Z,14.00
2023-02-14T08:26:00.853Z,14.88
2023-02-14T08:28:29.279Z,17.17
2023-02-14T08:30:57.197Z,13.25
2023-02-14T08:33:24.703Z,14.98
2023-02-14T08:35:53.026Z,16.15
2023-02-14T08:38:20.682Z,18.98
2023-02-14T08:40:48.334Z,12.63
2023-02-14T08:43:17.155Z,15.73
2023-02-14T08:45:44.910Z,14.52
2023-02-14T08:48:13.648Z,19.17
2023-02-14T08:50:41.634Z,14.43
2023-02-14T08:53:10.428Z,17.00
2023-02-14T08:55:39.136Z,13.80
2023-02-14T08:58:08.606Z,20.17
2023-02-14T09:00:37.487Z,17.98
2023-02-14T09:03:14.852Z,14.40
2023-02-14T09:05:43.689Z,16.65
2023-02-14T09:08:11.231Z,16.60
2023-02-14T09:10:38.782Z,15.40
2023-02-14T09:13:06.364Z,17.60
2023-02-14T09:15:43.407Z,15.95
2023-02-14T09:18:10.958Z,11.75
2023-02-14T09:20:46.462Z,15.43
2023-02-14T09:23:13.959Z,14.40
2023-02-14T09:25:46.615Z,15.85
2023-02-14T09:28:23.560Z,15.85
2023-02-14T09:30:54.454Z,14.13
2023-02-14T09:33:22.412Z,13.88
2023-02-14T09:35:50.009Z,15.85
2023-02-14T09:38:17.475Z,17.42
2023-02-14T09:40:45.661Z,16.48
2023-02-14T09:43:22.116Z,13.70
2023-02-14T09:45:55.380Z,17.77
2023-02-14T09:48:30.371Z,12.68
2023-02-14T09:51:03.119Z,14.13
2023-02-14T09:53:34.158Z,14.70
2023-02-14T09:56:14.434Z,17.63
2023-02-14T09:58:50.555Z,18.25
2023-02-14T10:01:23.855Z,14.48
2023-02-14T10:04:07.507Z,15.25
2023-02-14T10:06:49.120Z,14.55
2023-02-14T10:09:41.176Z,13.38
2023-02-14T10:12:15.536Z,13.70
2023-02-14T10:14:43.816Z,14.33
2023-02-14T10:17:17.752Z,13.07
2023-02-14T10:19:49.737Z,17.02
2023-02-14T10:22:20.247Z,14.07
2023-02-14T10:24:53.442Z,14.45
2023-02-14T10:27:31.062Z,13.85
2023-02-14T10:29:58.833Z,15.38
2023-02-14T10:32:32.828Z,14.85
2023-02-14T10:35:06.860Z,17.50
2023-02-14T10:37:53.128Z,12.98
2023-02-14T10:40:42.163Z,13.93
2023-02-14T10:43:20.383Z,13.27
2023-02-14T10:46:01.378Z,12.63
2023-02-14T10:48:39.739Z,14.80
2023-02-14T10:51:16.363Z,14.73
2023-02-14T10:53:54.802Z,12.65
2023-02-14T10:56:27.862Z,9.05
2023-02-14T10:58:57.445Z,17.23
2023-02-14T11:01:26.101Z,12.88
2023-02-14T11:04:03.622Z,13.32
2023-02-14T11:06:31.323Z,11.85
2023-02-14T11:08:59.412Z,13.05
2023-02-14T11:11:31.585Z,13.45
2023-02-14T11:13:59.366Z,14.55
2023-02-14T11:16:31.963Z,10.75
2023-02-14T11:19:21.037Z,10.18
2023-02-14T11:21:50.529Z,10.48
2023-02-14T11:24:20.269Z,13.63
2023-02-14T11:26:49.474Z,12.32
2023-02-14T11:29:25.792Z,13.13
2023-02-14T11:31:53.614Z,12.20
2023-02-14T11:34:32.223Z,14.85
2023-02-14T11:37:00.125Z,14.02
2023-02-14T11:39:31.616Z,19.50
2023-02-14T11:42:03.973Z,13.30
2023-02-14T11:44:33.158Z,15.07
2023-02-14T11:47:21.258Z,16.63
2023-02-14T11:49:58.405Z,12.35
2023-02-14T11:52:29.574Z,12.30
2023-02-14T11:54:58.583Z,15.25
2023-02-14T11:57:32.330Z,14.10
2023-02-14T12:00:05.244Z,16.58
2023-02-14T12:02:38.933Z,12.30
2023-02-14T12:05:20.243Z,17.67
2023-02-14T12:07:49.851Z,11.48
2023-02-14T12:10:21.755Z,12.30
2023-02-14T12:12:51.587Z,14.73
2023-02-14T12:15:26.367Z,12.38
2023-02-14T12:18:01.497Z,12.75
2023-02-14T12:20:40.389Z,16.13
2023-02-14T12:23:16.156Z,14.75
2023-02-14T12:25:49.346Z,11.70
2023-02-14T12:28:21.542Z,12.63
2023-02-14T12:30:50.298Z,12.57
2023-02-14T12:33:21.637Z,15.23
2023-02-14T12:36:01.523Z,13.45
2023-02-14T12:38:40.916Z,13.90
2023-02-14T12:41:20.664Z,11.32
2023-02-14T12:43:50.630Z,12.65
2023-02-14T12:46:30.397Z,14.07
2023-02-14T12:49:22.448Z,12.73
2023-02-14T12:51:58.822Z,12.23
2023-02-14T12:54:43.484Z,13.77
2023-02-14T12:57:23.379Z,12.93
2023-02-14T13:00:04.332Z,10.13
2023-02-14T13:02:53.500Z,13.25
2023-02-14T13:05:25.116Z,10.65
2023-02-14T13:08:07.024Z,11.75
2023-02-14T13:10:48.808Z,9.27
2023-02-14T13:13:23.674Z,9.50
2023-02-14T13:15:59.674Z,11.02
2023-02-14T13:18:36.864Z,10.63
2023-02-14T13:21:07.396Z,10.30
2023-02-14T13:23:41.076Z,11.98
2023-02-14T13:26:12.710Z,12.10
2023-02-14T13:28:46.385Z,9.98
2023-02-14T13:31:15.047Z,10.60
2023-02-14T13:33:46.064Z,11.02
2023-02-14T13:36:15.416Z,10.85
2023-02-14T13:38:48.992Z,9.55
2023-02-14T13:41:17.593Z,9.38
2023-02-14T13:43:54.877Z,11.50
2023-02-14T13:46:38.626Z,13.93
2023-02-14T13:49:24.789Z,10.40
2023-02-14T13:51:54.880Z,14.10
2023-02-14T13:54:32.587Z,9.50
2023-02-14T13:57:01.420Z,9.50
2023-02-14T13:59:31.944Z,8.43
2023-02-14T14:02:34.993Z,10.48
2023-02-14T14:05:22.464Z,10.30
2023-02-14T14:08:33.950Z,9.85
2023-02-14T14:11:04.438Z,8.07
2023-02-14T14:14:02.069Z,9.93
2023-02-14T14:16:33.137Z,10.27
2023-02-14T14:19:04.600Z,9.82
2023-02-14T14:21:34.635Z,10.70
2023-02-14T14:24:15.935Z,9.73
2023-02-14T14:26:47.521Z,10.18
2023-02-14T14:29:20.624Z,13.13
2023-02-14T14:31:55.198Z,12.45
2023-02-14T14:34:25.574Z,11.13
2023-02-14T14:37:03.081Z,9.52
2023-02-14T14:39:32.267Z,9.70
2023-02-14T14:42:09.639Z,10.10
2023-02-14T14:44:46.106Z,12.25
2023-02-14T14:47:18.541Z,11.65
2023-02-14T14:49:46.434Z,6.45
2023-02-14T14:52:27.257Z,8.82
2023-02-14T14:54:54.890Z,8.90
2023-02-14T14:57:23.856Z,9.07
2023-02-14T14:59:51.556Z,11.63
2023-02-14T15:02:23.894Z,14.30
2023-02-14T15:04:51.514Z,9.43
2023-02-14T15:07:21.107Z,10.63
2023-02-14T15:09:48.685Z,11.07
2023-02-14T15:12:39.189Z,13.35
2023-02-14T15:15:10.920Z,12.25
2023-02-14T15:17:40.065Z,11.43
2023-02-14T15:20:11.194Z,11.65
2023-02-14T15:22:44.164Z,11.77
2023-02-14T15:25:14.610Z,9.80
2023-02-14T15:27:43.164Z,10.23
2023-02-14T15:30:25.097Z,14.00
2023-02-14T15:32:54.463Z,10.55
2023-02-14T15:35:25.984Z,9.32
2023-02-14T15:37:54.652Z,11.38
2023-02-14T15:40:26.332Z,11.98
2023-02-14T15:42:56.558Z,11.77
2023-02-14T15:45:31.606Z,14.18
2023-02-14T15:48:00.927Z,10.82
2023-02-14T15:50:31.255Z,10.63
2023-02-14T15:53:04.806Z,11.10
2023-02-14T15:55:33.412Z,14.05
2023-02-14T15:58:03.777Z,15.82
2023-02-14T16:00:33.442Z,10.90
2023-02-14T16:03:05.733Z,15.25
2023-02-14T16:05:33.168Z,11.38
2023-02-14T16:08:03.766Z,8.75
2023-02-14T16:10:33.464Z,12.05
2023-02-14T16:13:02.954Z,17.63
2023-02-14T16:15:33.526Z,11.27
2023-02-14T16:18:06.940Z,12.85
2023-02-14T16:20:41.286Z,11.65
2023-02-14T16:23:17.472Z,10.82
2023-02-14T16:25:45.480Z,12.70
2023-02-14T16:28:13.929Z,14.45
2023-02-14T16:30:44.288Z,10.40
2023-02-14T16:33:17.416Z,12.10
2023-02-14T16:35:45.775Z,11.65
2023-02-14T16:38:16.095Z,11.18
2023-02-14T16:40:46.001Z,10.77
2023-02-14T16:43:15.253Z,11.80
2023-02-14T16:45:44.646Z,15.18
2023-02-14T16:48:12.226Z,11.00
2023-02-14T16:50:41.261Z,13.70
2023-02-14T16:53:15.304Z,22.10
2023-02-14T16:55:42.820Z,14.43
2023-02-14T16:58:10.340Z,18.40
2023-02-14T17:00:39.403Z,17.63
2023-02-14T17:03:08.498Z,18.67
2023-02-14T17:05:36.586Z,15.85
2023-02-14T17:08:05.727Z,17.40
2023-02-14T17:10:34.458Z,14.30
2023-02-14T17:13:03.376Z,17.48
2023-02-14T17:15:32.697Z,15.38
2023-02-14T17:18:03.794Z,14.13
2023-02-14T17:20:32.908Z,20.70
2023-02-14T17:23:00.427Z,15.38
2023-02-14T17:25:27.882Z,13.40
2023-02-14T17:27:56.342Z,12.90
2023-02-14T17:30:24.401Z,20.65
2023-02-14T17:32:51.909Z,12.90
2023-02-14T17:35:19.856Z,12.98
2023-02-14T17:37:49.354Z,14.30
2023-02-14T17:40:16.865Z,18.70
2023-02-14T17:42:45.121Z,15.30
2023-02-14T17:45:12.712Z,17.27
2023-02-14T17:47:43.209Z,15.32
2023-02-14T17:50:11.278Z,14.23
2023-02-14T17:52:38.813Z,13.45
2023-02-14T17:55:09.027Z,17.10
2023-02-14T17:57:36.663Z,12.93
2023-02-14T18:00:05.848Z,12.70
2023-02-14T18:02:33.627Z,14.55
2023-02-14T18:05:01.249Z,16.30
2023-02-14T18:07:28.885Z,19.02
2023-02-14T18:09:56.401Z,14.10
2023-02-14T18:12:25.311Z,22.40
2023-02-14T18:14:55.147Z,22.02
2023-02-14T18:17:22.674Z,19.50
2023-02-14T18:19:50.201Z,18.83
2023-02-14T18:22:17.733Z,16.52
2023-02-14T18:24:45.203Z,18.30
2023-02-14T18:27:15.736Z,19.40
2023-02-14T18:29:44.596Z,19.08
2023-02-14T18:32:12.058Z,17.65
2023-02-14T18:34:39.590Z,17.48
2023-02-14T18:37:07.082Z,16.67
2023-02-14T18:39:34.723Z,20.30
2023-02-14T18:42:02.206Z,22.08
2023-02-14T18:44:33.279Z,23.92
2023-02-14T18:47:08.987Z,21.30
2023-02-14T18:49:36.517Z,18.58
2023-02-14T18:52:04.870Z,18.58
2023-02-14T18:54:32.328Z,20.40
2023-02-14T18:56:59.791Z,18.50
2023-02-14T18:59:27.236Z,20.25
2023-02-14T19:01:54.695Z,16.52
2023-02-14T19:04:23.537Z,15.68
2023-02-14T19:06:51.038Z,18.27
2023-02-14T19:09:19.026Z,16.20
2023-02-14T19:11:47.031Z,17.33
2023-02-14T19:14:14.592Z,17.95
2023-02-14T19:16:49.985Z,15.10
2023-02-14T19:19:18.196Z,15.70
2023-02-14T19:21:46.999Z,13.93
2023-02-14T19:24:16.310Z,14.02
2023-02-14T19:26:44.506Z,16.83
2023-02-14T19:29:14.450Z,16.90
2023-02-14T19:31:43.686Z,17.48
2023-02-14T19:34:17.496Z,16.08
2023-02-14T19:36:44.984Z,20.10
2023-02-14T19:39:14.745Z,18.08
2023-02-14T19:41:42.357Z,17.35
2023-02-14T19:44:13.646Z,19.05
2023-02-14T19:46:42.767Z,16.70
2023-02-14T19:49:14.289Z,19.25
2023-02-14T19:51:42.507Z,18.00
2023-02-14T19:54:10.580Z,19.23
2023-02-14T19:56:41.675Z,18.50
2023-02-14T19:59:10.248Z,16.58
2023-02-14T20:01:41.269Z,22.40
2023-02-14T20:04:12.003Z,22.00
2023-02-14T20:06:39.481Z,17.40
2023-02-14T20:09:08.377Z,18.77
2023-02-14T20:11:39.262Z,21.15
2023-02-14T20:14:09.537Z,20.63
2023-02-14T20:16:38.159Z,20.52
2023-02-14T20:19:07.861Z,18.63
2023-02-14T20:21:35.705Z,24.77
2023-02-14T20:24:05.332Z,18.95
2023-02-14T20:26:35.162Z,19.77
2023-02-14T20:29:05.870Z,17.45
2023-02-14T20:31:35.080Z,21.00
2023-02-14T20:34:02.962Z,23.08
2023-02-14T20:36:30.574Z,23.35
2023-02-14T20:38:59.654Z,19.27
2023-02-14T20:41:27.851Z,18.75
2023-02-14T20:43:55.787Z,22.65
2023-02-14T20:46:23.813Z,20.60
2023-02-14T20:48:54.046Z,22.98
2023-02-14T20:51:22.403Z,19.65
2023-02-14T20:53:49.845Z,19.75
2023-02-14T20:56:18.011Z,20.58
2023-02-14T20:58:45.506Z,24.48
2023-02-14T21:01:15.213Z,25.00
2023-02-14T21:03:46.535Z,24.50
2023-02-14T21:06:16.018Z,20.27
2023-02-14T21:08:44.351Z,26.27
2023-02-14T21:11:14.856Z,21.38
2023-02-14T21:13:42.364Z,21.27
2023-02-14T21:16:11.633Z,23.63
2023-02-14T21:18:39.824Z,23.02
2023-02-14T21:21:09.275Z,24.15
2023-02-14T21:23:38.047Z,25.42
2023-02-14T21:26:05.573Z,21.67
2023-02-14T21:28:33.384Z,24.38
2023-02-14T21:31:04.968Z,27.40
2023-02-14T21:33:33.299Z,24.05
2023-02-14T21:36:06.782Z,22.77
2023-02-14T21:38:34.316Z,26.15
2023-02-14T21:41:05.067Z,20.73
2023-02-14T21:43:34.722Z,21.55
2023-02-14T21:46:05.026Z,23.52
2023-02-14T21:48:50.332Z,23.98
2023-02-14T21:51:18.005Z,23.95
2023-02-14T21:53:46.049Z,20.27
2023-02-14T21:56:19.575Z,23.98
2023-02-14T21:58:47.889Z,24.25
2023-02-14T22:01:16.574Z,24.98
2023-02-14T22:03:44.438Z,24.25
2023-02-14T22:06:13.069Z,24.35
2023-02-14T22:08:41.300Z,29.00
2023-02-14T22:11:09.980Z,22.73
2023-02-14T22:13:39.169Z,22.35
2023-02-14T22:16:08.303Z,25.05
2023-02-14T22:18:35.952Z,22.13
2023-02-14T22:21:04.852Z,27.08
2023-02-14T22:23:33.052Z,24.15
2023-02-14T22:26:09.574Z,24.30
2023-02-14T22:28:37.072Z,23.23
2023-02-14T22:31:06.285Z,25.17
2023-02-14T22:33:34.001Z,27.48
2023-02-14T22:36:02.268Z,20.90
2023-02-14T22:38:30.052Z,23.60
2023-02-14T22:40:57.761Z,23.73
2023-02-14T22:43:25.364Z,24.70
2023-02-14T22:45:52.842Z,28.05
2023-02-14T22:48:21.661Z,25.40
2023-02-14T22:50:49.161Z,23.77
2023-02-14T22:53:16.660Z,24.40
2023-02-14T22:55:44.270Z,23.23
2023-02-14T22:58:11.743Z,23.08
2023-02-14T23:00:39.240Z,22.83
2023-02-14T23:03:06.833Z,28.30
2023-02-14T23:05:35.712Z,24.40
2023-02-14T23:08:03.222Z,27.33
2023-02-14T23:10:30.711Z,27.52
2023-02-14T23:13:15.882Z,26.42
2023-02-14T23:16:01.212Z,26.17
2023-02-14T23:18:46.937Z,23.42
2023-02-14T23:21:33.234Z,24.02
2023-02-14T23:24:00.773Z,27.40
2023-02-14T23:26:28.272Z,31.55
2023-02-14T23:28:55.780Z,25.80
2023-02-14T23:31:23.382Z,27.60
2023-02-14T23:33:51.984Z,28.13
2023-02-14T23:36:20.792Z,27.67
2023-02-14T23:38:52.663Z,27.50
2023-02-14T23:41:37.810Z,23.65
2023-02-14T23:44:05.521Z,27.30
2023-02-14T23:46:32.995Z,29.98
2023-02-14T23:49:00.484Z,28.42
2023-02-14T23:51:29.268Z,25.98
2023-02-14T23:53:56.734Z,26.85
2023-02-14T23:56:24.642Z,26.55
2023-02-14T23:58:52.102Z,31.25
